Time;durP1;ratioP1;P1;durP2;ratioP2;P2;SDS_P1;SDS_P2;PMS_P1;PMS_P2;Temp;Humidity;BMP_temperature;BMP_pressure;BME280_temperature;BME280_humidity;BME280_pressure;Samples;Min_cycle;Max_cycle;Signal;HPM_P1;HPM_P2
2022/05/30 00:02:11;;;;;;;2.80;0.93;;;18.90;35.10;;;;;;7712281;23;20016;-71
2022/05/30 00:05:12;;;;;;;1.00;0.60;;;18.90;35.30;;;;;;7738809;23;20028;-71
2022/05/30 00:08:15;;;;;;;2.97;1.20;;;18.90;35.40;;;;;;7685778;23;20018;-71
2022/05/30 00:11:17;;;;;;;4.50;0.80;;;18.90;35.40;;;;;;7712970;23;20023;-72
2022/05/30 00:14:18;;;;;;;1.88;1.00;;;18.80;35.40;;;;;;7686993;23;20352;-71
2022/05/30 00:17:19;;;;;;;4.18;0.88;;;18.80;35.50;;;;;;7686257;23;20016;-71
2022/05/30 00:20:20;;;;;;;0.98;0.52;;;18.80;35.60;;;;;;7712739;23;20027;-72
2022/05/30 00:23:21;;;;;;;2.95;0.82;;;18.80;35.60;;;;;;7686665;23;20087;-71
2022/05/30 00:26:23;;;;;;;1.92;0.90;;;18.80;35.60;;;;;;7712795;23;20764;-73
2022/05/30 00:29:25;;;;;;;2.85;0.63;;;18.80;35.60;;;;;;7712926;23;20447;-72
2022/05/30 00:32:26;;;;;;;1.35;0.73;;;18.80;35.70;;;;;;7686719;23;20488;-72
2022/05/30 00:35:27;;;;;;;2.08;0.65;;;18.80;36.70;;;;;;7661811;23;20021;-72
2022/05/30 00:38:28;;;;;;;5.78;0.82;;;18.80;36.30;;;;;;7686047;23;20055;-72
2022/05/30 00:41:29;;;;;;;2.90;0.88;;;18.80;36.30;;;;;;7686540;23;20028;-71
2022/05/30 00:44:30;;;;;;;2.30;0.75;;;18.70;36.20;;;;;;7712318;23;20092;-72
2022/05/30 00:47:31;;;;;;;0.82;0.63;;;18.70;36.20;;;;;;7712722;23;20025;-72
2022/05/30 00:50:32;;;;;;;2.03;0.80;;;18.70;36.30;;;;;;7686335;23;20031;-71
2022/05/30 00:53:34;;;;;;;2.58;0.65;;;18.70;36.40;;;;;;7661383;23;20099;-70
2022/05/30 00:56:41;;;;;;;5.10;1.63;;;18.60;36.50;;;;;;7685966;23;20028;-71
2022/05/30 00:59:42;;;;;;;1.00;0.63;;;18.60;36.40;;;;;;7711450;23;20044;-71
2022/05/30 01:02:44;;;;;;;1.45;0.82;;;18.60;36.50;;;;;;7711462;23;20017;-71
2022/05/30 01:09:16;;;;;;;3.45;0.80;;;18.60;36.70;;;;;;7735738;23;20021;-71
2022/05/30 01:12:32;;;;;;;2.58;1.10;;;18.60;36.70;;;;;;7710837;23;20035;-71
2022/05/30 01:15:36;;;;;;;1.08;0.70;;;18.60;36.80;;;;;;7711604;23;20082;-71
2022/05/30 01:18:48;;;;;;;1.90;0.80;;;18.70;37.00;;;;;;7685973;23;20023;-71
2022/05/30 01:21:52;;;;;;;2.25;0.68;;;18.70;37.10;;;;;;7711364;23;20019;-71
2022/05/30 01:25:04;;;;;;;2.38;0.80;;;18.70;37.10;;;;;;7736279;23;20008;-71
2022/05/30 01:28:44;;;;;;;8.13;0.98;;;18.70;37.20;;;;;;7693077;23;20012;-71
2022/05/30 01:31:46;;;;;;;0.90;0.73;;;18.70;37.40;;;;;;7732443;23;20012;-71
2022/05/30 01:34:47;;;;;;;0.75;0.63;;;18.70;37.50;;;;;;7682319;23;20067;-71
2022/05/30 01:37:48;;;;;;;1.90;0.60;;;18.60;37.70;;;;;;7682241;23;20008;-71
2022/05/30 01:40:49;;;;;;;1.85;0.80;;;18.60;37.80;;;;;;7682260;23;20020;-71
2022/05/30 01:43:50;;;;;;;1.35;0.70;;;18.60;38.00;;;;;;7682526;23;20028;-71
2022/05/30 01:46:51;;;;;;;4.07;1.17;;;18.60;38.10;;;;;;7682999;23;20450;-71
2022/05/30 01:49:53;;;;;;;1.08;0.77;;;18.50;38.10;;;;;;7682258;23;20016;-71
2022/05/30 01:53:00;;;;;;;3.78;0.82;;;18.50;38.10;;;;;;7692960;23;20020;-71
2022/05/30 01:56:22;;;;;;;1.88;0.90;;;18.50;38.30;;;;;;7686510;23;20135;-72
2022/05/30 02:03:48;;;;;;;2.63;0.63;;;18.40;38.50;;;;;;7709637;23;20012;-70
2022/05/30 02:06:49;;;;;;;3.53;0.88;;;18.40;38.50;;;;;;7735304;23;20039;-70
2022/05/30 02:09:50;;;;;;;3.92;0.85;;;18.40;38.70;;;;;;7735269;23;20023;-72
2022/05/30 02:12:53;;;;;;;6.18;0.85;;;18.30;38.80;;;;;;7685499;23;20020;-72
2022/05/30 02:19:22;;;;;;;3.28;0.73;;;18.30;39.00;;;;;;7683042;23;20095;-72
2022/05/30 02:22:28;;;;;;;0.90;0.85;;;18.30;39.10;;;;;;7710440;23;20087;-71
2022/05/30 02:25:30;;;;;;;1.70;0.98;;;18.30;39.20;;;;;;7685207;23;20015;-71
2022/05/30 02:28:31;;;;;;;0.77;0.57;;;18.20;39.10;;;;;;7685262;23;20019;-72
2022/05/30 02:31:33;;;;;;;1.48;0.88;;;18.30;39.10;;;;;;7684965;23;20420;-71
2022/05/30 02:37:55;;;;;;;6.75;1.08;;;18.30;39.30;;;;;;7735613;23;20012;-72
2022/05/30 02:41:14;;;;;;;2.92;0.88;;;18.30;39.80;;;;;;7712143;23;20047;-72
2022/05/30 02:44:41;;;;;;;2.05;0.90;;;18.20;39.90;;;;;;7686427;23;20480;-73
2022/05/30 02:47:43;;;;;;;2.83;0.80;;;18.20;40.20;;;;;;7684394;23;20077;-71
2022/05/30 02:50:48;;;;;;;1.15;0.90;;;18.10;40.30;;;;;;7687244;23;20277;-72
2022/05/30 02:53:49;;;;;;;4.20;1.00;;;18.10;40.40;;;;;;7687228;23;20036;-72
2022/05/30 02:57:02;;;;;;;1.20;0.70;;;18.10;40.40;;;;;;7714321;23;20051;-72
2022/05/30 03:00:05;;;;;;;2.65;0.82;;;18.00;40.50;;;;;;7687410;23;20062;-72
2022/05/30 03:03:10;;;;;;;1.63;0.80;;;18.00;40.60;;;;;;7687202;23;20297;-72
2022/05/30 03:06:12;;;;;;;2.03;1.00;;;18.10;40.70;;;;;;7687376;23;20084;-73
2022/05/30 03:09:14;;;;;;;3.80;0.90;;;18.00;40.60;;;;;;7712997;23;20420;-73
2022/05/30 03:12:54;;;;;;;2.70;1.02;;;18.10;40.60;;;;;;7683677;23;20342;-71
2022/05/30 03:15:55;;;;;;;3.95;1.00;;;18.00;40.50;;;;;;7711368;23;20019;-71
2022/05/30 03:18:56;;;;;;;1.50;0.95;;;18.00;40.50;;;;;;7683747;23;20071;-73
2022/05/30 03:21:58;;;;;;;1.70;0.85;;;18.00;40.40;;;;;;7685574;23;20017;-72
2022/05/30 03:24:59;;;;;;;8.95;0.90;;;18.10;40.50;;;;;;7685923;23;20017;-72
2022/05/30 03:28:00;;;;;;;1.65;0.93;;;18.10;40.60;;;;;;7685810;23;20315;-71
2022/05/30 03:31:02;;;;;;;1.88;0.93;;;18.10;40.60;;;;;;7684714;23;20028;-72
2022/05/30 03:34:08;;;;;;;5.45;0.82;;;18.10;40.70;;;;;;7685802;23;20012;-72
2022/05/30 03:37:09;;;;;;;2.33;0.95;;;18.10;40.80;;;;;;7735967;23;20019;-71
2022/05/30 03:40:21;;;;;;;2.75;1.13;;;18.00;40.70;;;;;;7732752;23;20024;-71
2022/05/30 03:43:41;;;;;;;6.90;0.70;;;18.00;40.80;;;;;;7710212;23;20025;-71
2022/05/30 03:46:42;;;;;;;1.17;1.08;;;18.00;40.90;;;;;;7709931;23;20074;-73
2022/05/30 03:49:43;;;;;;;2.67;1.10;;;17.90;41.50;;;;;;7685409;23;20012;-73
2022/05/30 03:52:44;;;;;;;1.23;0.73;;;18.00;40.90;;;;;;7695248;23;20027;-71
2022/05/30 03:55:47;;;;;;;6.68;0.98;;;18.00;41.00;;;;;;7735769;23;20027;-71
2022/05/30 03:58:51;;;;;;;1.88;0.90;;;17.90;41.00;;;;;;7710702;22;20024;-73
2022/05/30 04:01:52;;;;;;;3.22;1.10;;;17.90;41.30;;;;;;7735493;23;20091;-73
2022/05/30 04:04:53;;;;;;;2.58;0.85;;;17.80;41.40;;;;;;7711173;23;20040;-72
2022/05/30 04:07:54;;;;;;;0.95;0.80;;;17.80;41.50;;;;;;7685057;23;20021;-72
2022/05/30 04:11:13;;;;;;;1.10;0.90;;;17.80;41.60;;;;;;7710640;23;20464;-71
2022/05/30 04:14:20;;;;;;;6.50;1.17;;;17.80;41.60;;;;;;7711481;23;20103;-72
2022/05/30 04:17:37;;;;;;;3.67;1.10;;;17.80;41.60;;;;;;7686339;23;20012;-72
2022/05/30 04:20:40;;;;;;;5.47;1.13;;;17.80;42.10;;;;;;7736613;23;20016;-73
2022/05/30 04:23:43;;;;;;;2.63;0.95;;;17.80;41.40;;;;;;7711326;23;20016;-71
2022/05/30 04:26:48;;;;;;;1.88;0.90;;;17.80;41.50;;;;;;7686170;23;20023;-72
2022/05/30 04:29:49;;;;;;;6.22;1.20;;;17.80;41.40;;;;;;7686517;23;20020;-72
2022/05/30 04:32:57;;;;;;;;;;;17.90;41.50;;;;;;7686193;23;20028;-72
2022/05/30 04:36:01;;;;;;;5.53;1.05;;;17.90;41.50;;;;;;7736623;23;19908;-71
2022/05/30 04:39:03;;;;;;;2.05;0.80;;;17.90;41.40;;;;;;7685959;23;20012;-71
2022/05/30 04:42:26;;;;;;;7.68;0.90;;;18.00;41.60;;;;;;7711883;23;20088;-72
2022/05/30 04:45:46;;;;;;;2.75;1.05;;;18.00;41.70;;;;;;7711859;23;20020;-71
2022/05/30 04:48:52;;;;;;;1.92;0.82;;;18.00;41.80;;;;;;7735921;23;20012;-71
2022/05/30 04:51:53;;;;;;;1.17;0.82;;;18.00;41.80;;;;;;7685923;23;20431;-72
2022/05/30 04:54:55;;;;;;;3.78;1.20;;;18.00;42.00;;;;;;7711847;23;20008;-71
2022/05/30 04:58:13;;;;;;;4.82;0.75;;;17.90;42.00;;;;;;7684831;23;20009;-72
2022/05/30 05:01:25;;;;;;;2.75;1.10;;;17.90;42.20;;;;;;7685283;23;20017;-71
2022/05/30 05:04:27;;;;;;;2.20;1.10;;;17.90;42.20;;;;;;7711844;23;20324;-72
2022/05/30 05:07:34;;;;;;;1.42;0.85;;;17.90;42.20;;;;;;7711096;23;20016;-72
2022/05/30 05:11:19;;;;;;;1.77;1.00;;;17.90;42.20;;;;;;7685340;23;20059;-72
2022/05/30 05:14:38;;;;;;;15.40;1.92;;;17.90;42.20;;;;;;7711039;23;20009;-72
2022/05/30 05:17:58;;;;;;;6.57;1.42;;;18.00;42.30;;;;;;7689564;23;20028;-71
2022/05/30 05:20:59;;;;;;;4.68;1.20;;;18.00;42.30;;;;;;7735815;23;20064;-72
2022/05/30 05:24:02;;;;;;;1.00;0.85;;;18.00;42.30;;;;;;7711457;23;20040;-72
2022/05/30 05:27:18;;;;;;;4.57;1.33;;;18.00;42.20;;;;;;7684771;23;20112;-71
2022/05/30 05:30:22;;;;;;;3.15;0.80;;;18.00;42.30;;;;;;7685194;23;20055;-72
2022/05/30 05:33:23;;;;;;;2.10;1.08;;;18.10;42.40;;;;;;7685246;23;20419;-72
2022/05/30 05:36:27;;;;;;;2.45;1.13;;;18.10;42.40;;;;;;7684950;23;20075;-72
2022/05/30 05:39:28;;;;;;;1.75;0.90;;;18.10;42.40;;;;;;7684928;23;20024;-71
2022/05/30 05:42:30;;;;;;;3.10;1.20;;;18.10;42.30;;;;;;7685618;23;20020;-73
2022/05/30 05:45:40;;;;;;;5.45;1.23;;;18.20;42.20;;;;;;7685494;23;20048;-72
2022/05/30 05:48:42;;;;;;;2.45;1.10;;;18.20;42.20;;;;;;7735297;23;20064;-72
2022/05/30 05:51:43;;;;;;;3.22;1.00;;;18.30;42.10;;;;;;7685130;23;20012;-72
2022/05/30 05:54:46;;;;;;;6.05;1.95;;;18.30;42.00;;;;;;7684577;23;20012;-72
2022/05/30 05:57:48;;;;;;;2.33;1.38;;;18.50;41.90;;;;;;7684692;23;20085;-71
2022/05/30 06:00:49;;;;;;;7.65;1.70;;;18.50;41.70;;;;;;7684689;23;20404;-71
2022/05/30 06:03:54;;;;;;;9.13;5.53;;;18.50;41.60;;;;;;7684548;23;20446;-72
2022/05/30 06:07:14;;;;;;;6.47;1.80;;;18.60;41.60;;;;;;7710675;23;20020;-73
2022/05/30 06:11:05;;;;;;;9.10;1.50;;;18.60;41.50;;;;;;7665451;23;20097;-73
2022/05/30 06:14:02;;;;;;;8.43;1.40;;;18.70;41.40;;;;;;7684657;23;20088;-72
2022/05/30 06:17:04;;;;;;;4.07;1.48;;;18.80;41.20;;;;;;7735182;23;20300;-71
2022/05/30 06:20:11;;;;;;;8.27;2.45;;;18.80;41.20;;;;;;7684887;23;20099;-72
2022/05/30 06:23:12;;;;;;;14.13;2.55;;;18.80;41.20;;;;;;7710083;23;20016;-72
2022/05/30 06:26:32;;;;;;;4.30;1.00;;;18.90;41.20;;;;;;7710546;23;20025;-72
2022/05/30 06:29:58;;;;;;;2.83;1.10;;;19.00;41.10;;;;;;7733141;23;20026;-72
2022/05/30 06:33:00;;;;;;;7.05;1.67;;;19.00;41.00;;;;;;7682793;23;20371;-72
2022/05/30 06:36:25;;;;;;;3.20;1.20;;;19.00;40.90;;;;;;7731613;23;20023;-73
2022/05/30 06:39:27;;;;;;;3.63;1.13;;;19.10;40.80;;;;;;7682511;23;20021;-73
2022/05/30 06:42:35;;;;;;;3.05;1.15;;;19.10;41.40;;;;;;7681146;23;20008;-71
2022/05/30 06:45:54;;;;;;;7.50;1.65;;;19.10;40.80;;;;;;7706728;22;20292;-72
2022/05/30 06:49:15;;;;;;;6.32;2.47;;;19.10;40.80;;;;;;7708119;23;20013;-71
2022/05/30 06:52:24;;;;;;;1.85;1.13;;;19.10;40.80;;;;;;7683133;23;20419;-72
2022/05/30 06:55:26;;;;;;;2.72;1.10;;;19.20;40.80;;;;;;7671601;23;20008;-72
2022/05/30 06:58:28;;;;;;;2.75;1.10;;;19.20;40.60;;;;;;7705041;23;20013;-72
2022/05/30 07:01:34;;;;;;;4.22;1.15;;;19.30;40.60;;;;;;7682796;23;20031;-70
2022/05/30 07:04:53;;;;;;;1.95;0.98;;;19.50;40.30;;;;;;7708598;23;20024;-73
2022/05/30 07:08:13;;;;;;;2.97;0.95;;;20.10;39.50;;;;;;7708206;23;20400;-72
2022/05/30 07:11:45;;;;;;;4.05;1.40;;;20.70;38.20;;;;;;7680015;23;20035;-72
2022/05/30 07:14:49;;;;;;;2.95;1.20;;;21.10;37.30;;;;;;7681205;23;20378;-73
2022/05/30 07:17:50;;;;;;;2.17;1.02;;;21.10;37.10;;;;;;7730071;23;20096;-71
2022/05/30 07:20:59;;;;;;;3.20;1.52;;;21.00;37.20;;;;;;7681611;23;20032;-71
2022/05/30 07:24:03;;;;;;;9.85;2.00;;;20.90;37.40;;;;;;7707314;23;20100;-72
2022/05/30 07:27:24;;;;;;;6.40;1.08;;;20.80;37.60;;;;;;7706849;23;20311;-71
2022/05/30 07:30:43;;;;;;;2.53;0.80;;;20.70;37.50;;;;;;7706674;23;20423;-73
2022/05/30 07:34:03;;;;;;;2.40;1.30;;;20.60;37.50;;;;;;7686562;23;20048;-72
2022/05/30 07:37:22;;;;;;;3.13;0.98;;;20.60;37.40;;;;;;7709169;23;20016;-72
2022/05/30 07:40:55;;;;;;;7.95;1.08;;;20.60;37.10;;;;;;7595487;23;20032;-73
2022/05/30 07:44:19;;;;;;;2.58;1.10;;;20.50;36.90;;;;;;7507455;23;20015;-72
2022/05/30 07:47:28;;;;;;;6.15;1.10;;;20.50;36.90;;;;;;7512556;23;20019;-72
2022/05/30 07:50:57;;;;;;;4.10;2.15;;;20.40;37.00;;;;;;7467134;23;20027;-73
2022/05/30 07:54:12;;;;;;;3.33;1.48;;;20.50;36.90;;;;;;7487168;23;20026;-73
2022/05/30 07:57:52;;;;;;;3.53;1.27;;;20.60;36.80;;;;;;7487279;23;20019;-72
2022/05/30 08:00:54;;;;;;;8.65;1.25;;;20.80;36.60;;;;;;7512596;23;20122;-71
2022/05/30 08:04:13;;;;;;;3.65;1.05;;;21.00;36.40;;;;;;7512079;23;20023;-72
2022/05/30 08:07:21;;;;;;;8.40;1.85;;;21.20;36.00;;;;;;7488253;23;20091;-72
2022/05/30 08:10:47;;;;;;;11.15;1.40;;;21.40;35.60;;;;;;7489540;23;20027;-72
2022/05/30 08:13:50;;;;;;;10.52;1.40;;;21.60;35.30;;;;;;7512728;23;20106;-73
2022/05/30 08:16:52;;;;;;;7.65;1.67;;;21.80;35.00;;;;;;7539979;23;20018;-73
2022/05/30 08:19:53;;;;;;;2.58;1.08;;;21.90;34.70;;;;;;7602529;23;20376;-72
2022/05/30 08:22:58;;;;;;;7.60;1.58;;;22.00;34.30;;;;;;7682389;23;20590;-73
2022/05/30 08:26:00;;;;;;;3.42;0.73;;;22.10;34.20;;;;;;7683224;23;20012;-73
2022/05/30 08:29:07;;;;;;;4.28;0.95;;;22.10;33.90;;;;;;7683140;23;20091;-73
2022/05/30 08:32:09;;;;;;;5.05;1.23;;;22.20;33.80;;;;;;7683944;23;20027;-73
2022/05/30 08:35:28;;;;;;;4.35;1.33;;;22.30;33.70;;;;;;7710364;23;20021;-72
2022/05/30 08:38:33;;;;;;;4.20;0.90;;;22.40;33.50;;;;;;7682649;23;20028;-73
2022/05/30 08:41:47;;;;;;;9.88;1.08;;;22.50;33.40;;;;;;7683911;23;20027;-73
2022/05/30 08:45:12;;;;;;;1.88;1.02;;;22.60;33.20;;;;;;7685240;23;20020;-72
2022/05/30 08:48:37;;;;;;;3.50;0.88;;;22.70;33.10;;;;;;7689686;23;20103;-73
2022/05/30 08:51:57;;;;;;;1.58;1.08;;;22.80;32.90;;;;;;7657772;23;20021;-73
2022/05/30 08:55:12;;;;;;;2.75;1.00;;;23.00;32.70;;;;;;7683058;23;20024;-72
2022/05/30 08:58:56;;;;;;;3.10;1.15;;;23.10;32.70;;;;;;7709989;23;20574;-73
2022/05/30 09:02:13;;;;;;;3.03;1.30;;;23.10;32.60;;;;;;7733401;23;20031;-71
2022/05/30 09:05:34;;;;;;;2.92;1.13;;;23.30;32.50;;;;;;7681726;23;20324;-72
2022/05/30 09:08:42;;;;;;;3.13;1.05;;;23.40;32.20;;;;;;7708131;23;20023;-72
2022/05/30 09:12:39;;;;;;;6.70;1.35;;;23.50;32.00;;;;;;7492085;23;20026;-72
2022/05/30 09:20:29;;;;;;;2.60;1.25;;;23.80;31.70;;;;;;7527332;23;20414;-72
2022/05/30 09:23:32;;;;;;;2.38;1.00;;;24.10;31.40;;;;;;7505256;23;20034;-73
2022/05/30 09:26:39;;;;;;;4.72;1.85;;;24.30;31.10;;;;;;7505813;23;20026;-73
2022/05/30 09:30:01;;;;;;;7.10;1.20;;;24.50;31.00;;;;;;7523792;23;20026;-74
2022/05/30 09:33:35;;;;;;;4.10;1.10;;;24.70;30.70;;;;;;7517018;23;20335;-72
2022/05/30 09:36:55;;;;;;;1.73;1.00;;;24.90;30.50;;;;;;7525683;23;20034;-72
2022/05/30 09:40:10;;;;;;;2.47;1.25;;;25.00;30.20;;;;;;7526569;23;20461;-73
2022/05/30 09:43:39;;;;;;;7.93;0.93;;;25.20;30.00;;;;;;7503853;23;20076;-72
2022/05/30 09:47:01;;;;;;;2.10;0.90;;;25.40;29.70;;;;;;7503680;23;20439;-73
2022/05/30 09:50:19;;;;;;;11.30;3.28;;;25.60;29.60;;;;;;7639117;23;20084;-75
2022/05/30 09:53:48;;;;;;;8.23;1.95;;;25.70;29.20;;;;;;7649053;23;20051;-72
2022/05/30 09:57:24;;;;;;;3.53;0.90;;;26.00;29.20;;;;;;7649115;23;20025;-72
2022/05/30 10:00:57;;;;;;;5.63;1.08;;;26.20;29.20;;;;;;7624500;23;20021;-72
2022/05/30 10:04:17;;;;;;;7.78;1.63;;;26.40;29.20;;;;;;7695761;23;20108;-73
2022/05/30 10:07:51;;;;;;;3.53;0.95;;;26.50;29.10;;;;;;7689068;23;20013;-73
2022/05/30 10:11:24;;;;;;;5.82;1.35;;;26.60;29.00;;;;;;7647737;23;20289;-74
2022/05/30 10:14:29;;;;;;;4.88;1.08;;;26.60;29.10;;;;;;7670504;23;20029;-73
2022/05/30 10:17:44;;;;;;;6.63;1.45;;;26.60;29.00;;;;;;7690812;23;20295;-72
2022/05/30 10:29:52;;;;;;;3.60;1.13;;;26.30;29.20;;;;;;7523006;23;20015;-75
2022/05/30 10:33:44;;;;;;;2.45;1.30;;;26.30;29.20;;;;;;7473402;23;20093;-73
2022/05/30 10:37:03;;;;;;;4.57;1.33;;;26.30;29.20;;;;;;7547709;23;20086;-73
2022/05/30 10:40:32;;;;;;;2.28;1.20;;;26.30;29.10;;;;;;7500109;23;20033;-72
2022/05/30 10:43:50;;;;;;;5.07;1.30;;;26.30;29.10;;;;;;7549303;23;20018;-72
2022/05/30 10:47:06;;;;;;;4.85;1.20;;;26.30;29.00;;;;;;7524350;23;20082;-72
2022/05/30 10:50:42;;;;;;;5.15;1.50;;;26.40;28.80;;;;;;7548167;23;20093;-74
2022/05/30 10:53:54;;;;;;;3.97;1.20;;;26.50;28.70;;;;;;7518824;23;20017;-73
2022/05/30 10:57:15;;;;;;;4.50;1.10;;;26.50;28.40;;;;;;7672803;23;20052;-72
2022/05/30 11:00:20;;;;;;;3.78;1.33;;;26.50;28.20;;;;;;7695063;23;20120;-73
2022/05/30 11:03:41;;;;;;;2.83;1.10;;;26.70;28.00;;;;;;7720283;23;20021;-72
2022/05/30 11:06:45;;;;;;;1.75;1.08;;;27.10;27.50;;;;;;7692468;23;20080;-72
2022/05/30 11:09:54;;;;;;;11.93;2.05;;;27.60;27.10;;;;;;7722363;23;20017;-73
2022/05/30 11:13:22;;;;;;;4.60;1.88;;;28.40;26.40;;;;;;7723361;23;20079;-72
2022/05/30 11:17:14;;;;;;;6.30;3.20;;;29.20;25.60;;;;;;7524928;23;20101;-72
2022/05/30 11:20:36;;;;;;;10.40;1.75;;;29.80;25.00;;;;;;7524882;23;20088;-73
2022/05/30 11:23:41;;;;;;;5.10;1.75;;;29.90;24.80;;;;;;7524894;23;20014;-73
2022/05/30 11:27:10;;;;;;;5.07;1.35;;;30.00;24.60;;;;;;7500421;23;20049;-73
2022/05/30 11:30:13;;;;;;;9.05;1.20;;;30.30;24.50;;;;;;7522838;23;20409;-72
2022/05/30 11:33:27;;;;;;;1.88;1.10;;;30.60;24.40;;;;;;7501583;23;20304;-73
2022/05/30 11:36:38;;;;;;;3.70;1.02;;;30.60;24.30;;;;;;7524946;23;20038;-74
2022/05/30 11:40:00;;;;;;;6.68;1.10;;;30.30;24.40;;;;;;7522404;23;20023;-73
2022/05/30 11:43:26;;;;;;;2.58;1.25;;;30.00;24.50;;;;;;7548448;23;20014;-72
2022/05/30 11:46:59;;;;;;;1.48;1.10;;;29.80;24.60;;;;;;7537366;23;20015;-72
2022/05/30 11:50:07;;;;;;;7.28;1.13;;;29.80;24.80;;;;;;7522627;23;20015;-73
2022/05/30 11:53:21;;;;;;;9.33;1.10;;;29.80;24.70;;;;;;7636711;23;20025;-73
2022/05/30 11:56:25;;;;;;;1.67;1.00;;;29.60;25.00;;;;;;7671792;23;20028;-73
2022/05/30 12:00:04;;;;;;;6.55;1.17;;;29.60;25.00;;;;;;7720448;23;20032;-73
2022/05/30 12:03:38;;;;;;;4.80;1.10;;;29.60;25.00;;;;;;7672604;23;20021;-73
2022/05/30 12:06:44;;;;;;;3.53;1.38;;;29.60;24.80;;;;;;7697732;23;20409;-74
2022/05/30 12:09:48;;;;;;;6.47;0.95;;;29.80;24.80;;;;;;7674554;22;20036;-71
2022/05/30 12:12:57;;;;;;;6.88;1.08;;;30.10;24.70;;;;;;7673513;23;20119;-74
2022/05/30 12:16:25;;;;;;;2.58;0.95;;;30.50;24.30;;;;;;7676422;23;20017;-74
2022/05/30 12:26:45;;;;;;;4.57;1.10;;;32.00;23.00;;;;;;7721262;23;20092;-72
2022/05/30 12:29:49;;;;;;;4.72;1.25;;;32.40;22.60;;;;;;7671910;23;20087;-74
2022/05/30 12:32:50;;;;;;;4.95;1.10;;;32.60;22.10;;;;;;7673607;23;20024;-72
2022/05/30 12:36:11;;;;;;;8.45;1.25;;;32.90;22.10;;;;;;7722091;23;20069;-73
2022/05/30 12:39:38;;;;;;;8.90;1.35;;;33.10;21.70;;;;;;7670775;23;20033;-73
2022/05/30 12:42:43;;;;;;;2.78;0.98;;;33.10;21.60;;;;;;7650601;23;20012;-73
2022/05/30 12:46:08;;;;;;;1.83;1.02;;;33.10;21.50;;;;;;7681921;23;20377;-73
2022/05/30 12:49:30;;;;;;;5.43;1.23;;;32.90;21.50;;;;;;7708542;23;20366;-73
2022/05/30 12:52:51;;;;;;;5.80;1.33;;;32.90;21.50;;;;;;7671012;23;20024;-72
2022/05/30 12:55:54;;;;;;;2.88;1.08;;;32.90;21.40;;;;;;7674000;23;20009;-73
2022/05/30 12:59:04;;;;;;;5.05;1.00;;;32.90;21.20;;;;;;7671846;23;20020;-73
2022/05/30 13:02:07;;;;;;;5.75;1.20;;;32.90;21.30;;;;;;7671866;23;20023;-74
2022/05/30 13:05:21;;;;;;;7.00;1.13;;;32.70;21.40;;;;;;7717334;23;20019;-73
2022/05/30 13:09:01;;;;;;;3.40;1.80;;;32.70;21.50;;;;;;7675378;23;20035;-72
2022/05/30 13:12:11;;;;;;;6.50;1.35;;;33.10;21.20;;;;;;7680585;23;20437;-73
2022/05/30 13:15:27;;;;;;;3.53;1.17;;;33.90;20.70;;;;;;7709114;23;20008;-74
2022/05/30 13:18:28;;;;;;;6.25;1.17;;;34.60;20.40;;;;;;7681696;23;20423;-72
2022/05/30 13:21:30;;;;;;;1.65;1.13;;;34.90;20.00;;;;;;7707006;23;20016;-73
2022/05/30 13:24:34;;;;;;;2.17;1.08;;;34.80;20.00;;;;;;7681526;23;20016;-73
2022/05/30 13:27:35;;;;;;;5.45;1.27;;;34.40;20.10;;;;;;7683194;23;20459;-72
2022/05/30 13:30:39;;;;;;;2.95;1.30;;;34.20;20.20;;;;;;7708798;23;20009;-74
2022/05/30 13:33:48;;;;;;;2.53;0.95;;;34.30;20.20;;;;;;7733470;23;20027;-73
2022/05/30 13:36:50;;;;;;;2.45;1.00;;;34.30;19.90;;;;;;7733627;23;20031;-74
2022/05/30 13:39:53;;;;;;;2.30;1.30;;;34.40;20.40;;;;;;7718179;23;20336;-73
2022/05/30 13:42:57;;;;;;;2.03;1.15;;;34.30;19.90;;;;;;7708774;23;20305;-74
2022/05/30 13:45:59;;;;;;;4.53;0.90;;;34.10;20.00;;;;;;7709307;23;20008;-74
2022/05/30 13:49:00;;;;;;;1.92;1.00;;;33.60;20.20;;;;;;7708360;23;20400;-74
2022/05/30 13:52:03;;;;;;;2.95;0.90;;;33.10;20.60;;;;;;7733864;23;20043;-72
2022/05/30 13:55:08;;;;;;;2.03;1.05;;;32.80;20.80;;;;;;7684501;23;20027;-73
2022/05/30 13:58:09;;;;;;;3.15;1.02;;;32.40;21.10;;;;;;7710669;23;20027;-74
2022/05/30 14:01:15;;;;;;;5.80;1.23;;;32.30;21.30;;;;;;7710774;23;20099;-73
2022/05/30 14:04:27;;;;;;;4.60;1.23;;;32.10;21.40;;;;;;7734188;23;20024;-73
2022/05/30 14:07:46;;;;;;;4.45;1.08;;;32.00;21.60;;;;;;7709129;23;20444;-72
2022/05/30 14:10:47;;;;;;;6.22;1.15;;;32.10;21.50;;;;;;7731980;23;20016;-73
2022/05/30 14:13:53;;;;;;;3.25;1.10;;;32.00;21.60;;;;;;7709014;23;20020;-73
2022/05/30 14:16:58;;;;;;;1.33;0.98;;;31.70;21.80;;;;;;7733228;23;20020;-73
2022/05/30 14:20:11;;;;;;;3.17;1.00;;;31.70;22.00;;;;;;7683194;23;20040;-74
2022/05/30 14:23:16;;;;;;;1.15;1.05;;;31.50;22.10;;;;;;7732141;23;20104;-72
2022/05/30 14:26:30;;;;;;;3.85;1.02;;;31.30;22.20;;;;;;7680811;23;20381;-73
2022/05/30 14:29:43;;;;;;;2.25;1.13;;;31.20;22.30;;;;;;7682335;23;20020;-73
2022/05/30 14:32:49;;;;;;;2.80;1.20;;;31.10;22.40;;;;;;7730611;23;20139;-74
2022/05/30 14:35:51;;;;;;;2.13;1.08;;;30.90;22.60;;;;;;7680876;23;20051;-72
2022/05/30 14:38:59;;;;;;;3.05;0.93;;;31.10;22.60;;;;;;7679050;23;20308;-74
2022/05/30 14:42:03;;;;;;;8.50;1.05;;;31.40;22.30;;;;;;7705519;23;20024;-72
2022/05/30 14:45:12;;;;;;;3.10;1.10;;;31.50;22.30;;;;;;7709904;23;20296;-73
2022/05/30 14:48:20;;;;;;;4.22;1.23;;;31.50;22.20;;;;;;7707558;23;20497;-73
2022/05/30 14:51:34;;;;;;;5.22;1.20;;;31.60;22.60;;;;;;7706282;23;20021;-72
2022/05/30 14:54:50;;;;;;;2.67;1.20;;;31.90;21.90;;;;;;7709559;23;20031;-73
2022/05/30 14:57:53;;;;;;;2.85;1.00;;;32.10;21.80;;;;;;7685905;23;20410;-72
2022/05/30 15:00:59;;;;;;;7.18;1.08;;;32.30;21.70;;;;;;7686196;23;20096;-72
2022/05/30 15:04:05;;;;;;;11.30;1.45;;;32.70;21.40;;;;;;7711530;23;20017;-73
2022/05/30 15:07:13;;;;;;;5.97;1.42;;;32.70;21.30;;;;;;7735042;23;20032;-73
2022/05/30 15:10:23;;;;;;;1.70;0.90;;;32.70;21.30;;;;;;7711055;23;20416;-73
2022/05/30 15:13:24;;;;;;;2.88;1.15;;;33.00;21.00;;;;;;7685218;23;20016;-72
2022/05/30 15:16:26;;;;;;;4.45;1.10;;;33.30;20.80;;;;;;7685486;23;20009;-73
2022/05/30 15:19:27;;;;;;;3.15;1.30;;;33.50;20.70;;;;;;7733275;23;20392;-73
2022/05/30 15:22:28;;;;;;;1.15;0.90;;;33.80;20.40;;;;;;7685354;23;20018;-73
2022/05/30 15:25:30;;;;;;;1.77;1.10;;;34.10;20.20;;;;;;7711265;23;20467;-73
2022/05/30 15:28:35;;;;;;;2.58;1.20;;;34.70;19.80;;;;;;7711352;23;20013;-73
2022/05/30 15:31:36;;;;;;;2.65;1.10;;;35.40;19.30;;;;;;7711317;23;20147;-73
2022/05/30 15:34:37;;;;;;;4.07;1.10;;;35.80;18.90;;;;;;7685464;23;20135;-72
2022/05/30 15:37:38;;;;;;;6.50;1.00;;;36.10;18.60;;;;;;7711721;23;20023;-73
2022/05/30 15:40:40;;;;;;;2.83;1.10;;;36.50;18.40;;;;;;7710738;23;20016;-72
2022/05/30 15:43:41;;;;;;;2.67;0.98;;;37.00;18.10;;;;;;7711811;23;20428;-74
2022/05/30 15:46:43;;;;;;;5.60;1.13;;;37.50;17.80;;;;;;7685861;23;20020;-73
2022/05/30 15:49:45;;;;;;;2.05;1.20;;;37.80;17.50;;;;;;7710566;23;20008;-73
2022/05/30 15:59:34;;;;;;;1.63;1.00;;;39.00;16.90;;;;;;7730362;23;20077;-73
2022/05/30 16:02:36;;;;;;;4.78;0.90;;;39.20;16.50;;;;;;7708564;23;20091;-73
2022/05/30 16:05:37;;;;;;;2.78;1.00;;;39.30;16.40;;;;;;7709220;23;20013;-73
2022/05/30 16:08:44;;;;;;;3.88;1.00;;;39.20;16.50;;;;;;7680800;23;20019;-73
2022/05/30 16:11:49;;;;;;;2.20;0.80;;;39.20;16.50;;;;;;7682568;23;20040;-72
2022/05/30 16:14:50;;;;;;;6.20;1.20;;;39.30;16.50;;;;;;7683871;23;20036;-73
2022/05/30 16:17:51;;;;;;;1.58;1.00;;;39.40;16.30;;;;;;7709749;23;20079;-73
2022/05/30 16:20:53;;;;;;;8.38;1.23;;;39.50;16.10;;;;;;7709056;23;20021;-72
2022/05/30 16:23:59;;;;;;;2.65;0.82;;;39.40;16.20;;;;;;7658195;23;20032;-72
2022/05/30 16:27:05;;;;;;;4.22;1.00;;;39.00;16.30;;;;;;7734996;23;20039;-72
2022/05/30 16:30:07;;;;;;;4.05;0.85;;;38.50;16.50;;;;;;7710929;23;20320;-72
2022/05/30 16:33:09;;;;;;;5.18;1.02;;;38.10;16.70;;;;;;7684657;23;20071;-73
2022/05/30 16:36:10;;;;;;;7.45;1.00;;;37.60;17.00;;;;;;7710556;23;20141;-73
2022/05/30 16:39:11;;;;;;;2.60;1.00;;;37.20;17.40;;;;;;7710363;23;20036;-72
2022/05/30 16:42:12;;;;;;;2.35;0.82;;;36.60;17.50;;;;;;7710469;23;20044;-72
2022/05/30 16:45:14;;;;;;;2.42;1.00;;;35.80;17.90;;;;;;7710639;23;20108;-72
2022/05/30 16:48:28;;;;;;;3.70;1.15;;;35.30;18.30;;;;;;7710105;23;20075;-72
2022/05/30 16:51:29;;;;;;;2.47;1.00;;;34.80;18.70;;;;;;7734514;23;20078;-72
2022/05/30 16:54:30;;;;;;;2.85;1.15;;;34.20;19.10;;;;;;7710483;23;20028;-72
2022/05/30 16:57:31;;;;;;;3.30;1.05;;;33.30;19.70;;;;;;7685083;23;20315;-72
2022/05/30 17:00:34;;;;;;;2.65;1.10;;;32.40;20.40;;;;;;7684129;23;20103;-72
2022/05/30 17:03:36;;;;;;;2.33;0.98;;;31.50;21.30;;;;;;7684970;23;20017;-72
2022/05/30 17:06:38;;;;;;;4.80;1.08;;;30.70;22.00;;;;;;7684991;23;20077;-72
2022/05/30 17:09:39;;;;;;;2.33;1.08;;;29.90;22.50;;;;;;7684503;23;20076;-72
2022/05/30 17:12:40;;;;;;;1.92;1.30;;;29.30;23.10;;;;;;7672161;23;20092;-72